Time;durP1;ratioP1;P1;durP2;ratioP2;P2;SDS_P1;SDS_P2;PMS_P1;PMS_P2;Temp;Humidity;BMP_temperature;BMP_pressure;BME280_temperature;BME280_humidity;BME280_pressure;Samples;Min_cycle;Max_cycle;Signal;HPM_P1;HPM_P2
2022/10/17 00:00:00;;;;;;;6.28;4.90;;;;;;;-145.23;100.00;58621.06;5019262;28;20720;-53
2022/10/17 00:02:26;;;;;;;6.00;5.30;;;;;;;-145.23;100.00;58621.06;5019545;28;20902;-52
2022/10/17 00:04:53;;;;;;;8.90;6.18;;;;;;;-145.23;100.00;58621.06;5021680;28;20250;-52
2022/10/17 00:07:19;;;;;;;6.07;5.10;;;;;;;-145.23;100.00;58621.06;5026133;28;20324;-52
2022/10/17 00:09:46;;;;;;;8.55;5.20;;;;;;;-145.23;100.00;58621.06;5007624;28;20233;-52
2022/10/17 00:12:12;;;;;;;5.65;5.07;;;;;;;-145.23;100.00;58621.06;5012488;28;20248;-53
2022/10/17 00:14:39;;;;;;;7.57;5.00;;;;;;;-145.23;100.00;58621.06;5010817;28;20647;-52
2022/10/17 00:17:07;;;;;;;9.38;5.35;;;;;;;-145.23;100.00;58621.06;4991881;28;20244;-51
2022/10/17 00:19:33;;;;;;;6.10;5.00;;;;;;;-145.23;100.00;58621.06;5000228;28;20244;-52
2022/10/17 00:21:59;;;;;;;6.78;5.97;;;;;;;-145.23;100.00;58621.06;5005117;28;20244;-52
2022/10/17 00:24:26;;;;;;;6.78;5.53;;;;;;;-145.23;100.00;58621.06;5010932;28;20268;-52
2022/10/17 00:26:52;;;;;;;7.97;5.72;;;;;;;-145.23;100.00;58621.06;5024307;28;20246;-52
2022/10/17 00:29:19;;;;;;;8.23;6.07;;;;;;;-145.23;100.00;58621.06;5029395;28;20473;-52
2022/10/17 00:31:45;;;;;;;6.88;5.90;;;;;;;-145.23;100.00;58621.06;5015592;28;20262;-52
2022/10/17 00:34:13;;;;;;;8.38;5.95;;;;;;;-145.23;100.00;58621.06;5018971;28;20236;-52
2022/10/17 00:36:39;;;;;;;6.78;5.85;;;;;;;-145.23;100.00;58621.06;5030682;28;20233;-52
2022/10/17 00:39:06;;;;;;;12.15;6.05;;;;;;;-145.23;100.00;58621.06;5023964;28;20240;-51
2022/10/17 00:41:33;;;;;;;6.22;5.32;;;;;;;-145.23;100.00;58621.06;5017166;28;20226;-52
2022/10/17 00:44:01;;;;;;;6.95;5.55;;;;;;;-145.23;100.00;58621.06;5017407;28;20236;-52
2022/10/17 00:46:30;;;;;;;7.82;6.05;;;;;;;-145.23;100.00;58621.06;5004248;28;20224;-52
2022/10/17 00:48:57;;;;;;;6.68;5.93;;;;;;;-145.23;100.00;58621.06;5010642;28;20774;-54
2022/10/17 00:51:32;;;;;;;5.28;4.78;;;;;;;-145.23;100.00;58621.06;5029898;28;20301;-52
2022/10/17 00:53:59;;;;;;;5.68;5.05;;;;;;;-145.23;100.00;58621.06;5008379;28;20706;-52
2022/10/17 00:56:27;;;;;;;6.72;5.05;;;;;;;-145.23;100.00;58621.06;5018772;28;20229;-54
2022/10/17 00:58:54;;;;;;;5.30;4.70;;;;;;;-145.23;100.00;58621.06;5035999;28;20297;-53
2022/10/17 01:01:20;;;;;;;6.78;5.40;;;;;;;-145.23;100.00;58621.06;5023923;28;20235;-52
2022/10/17 01:03:47;;;;;;;5.78;5.18;;;;;;;-145.23;100.00;58621.06;5027156;28;20657;-52
2022/10/17 01:06:14;;;;;;;6.38;5.10;;;;;;;-145.23;100.00;58621.06;5019051;28;20232;-52
2022/10/17 01:08:42;;;;;;;6.25;5.60;;;;;;;-145.23;100.00;58621.06;5012942;28;20244;-53
2022/10/17 01:11:17;;;;;;;6.88;5.35;;;;;;;-145.23;100.00;58621.06;5015123;28;20232;-52
2022/10/17 01:13:50;;;;;;;11.65;5.45;;;;;;;-145.23;100.00;58621.06;5018259;28;20807;-52
2022/10/17 01:16:20;;;;;;;5.90;5.40;;;;;;;-145.23;100.00;58621.06;5004988;28;20249;-51
2022/10/17 01:18:53;;;;;;;5.32;4.88;;;;;;;-145.23;100.00;58621.06;4996492;28;20781;-52
2022/10/17 01:21:29;;;;;;;6.32;4.93;;;;;;;-145.23;100.00;58621.06;5000139;28;20234;-51
2022/10/17 01:24:28;;;;;;;6.18;5.13;;;;;;;-145.23;100.00;58621.06;5015779;28;20224;-51
2022/10/17 01:27:23;;;;;;;6.35;5.68;;;;;;;-145.23;100.00;58621.06;5006530;28;20693;-52
2022/10/17 01:30:10;;;;;;;7.00;5.30;;;;;;;-145.23;100.00;58621.06;5025972;28;20256;-52
2022/10/17 01:32:40;;;;;;;5.10;4.55;;;;;;;-145.23;100.00;58621.06;5005604;28;20229;-51
2022/10/17 01:35:10;;;;;;;5.43;4.93;;;;;;;-145.23;100.00;58621.06;5016635;28;20259;-51
2022/10/17 01:37:42;;;;;;;6.22;4.78;;;;;;;-145.23;100.00;58621.06;5023593;28;20328;-51
2022/10/17 01:40:10;;;;;;;5.18;4.68;;;;;;;-145.23;100.00;58621.06;5004462;28;20771;-51
2022/10/17 01:42:41;;;;;;;5.57;5.05;;;;;;;-145.23;100.00;58621.06;5000306;28;20315;-51
2022/10/17 01:45:12;;;;;;;5.22;4.78;;;;;;;-145.23;100.00;58621.06;5002739;28;20290;-51
2022/10/17 01:47:43;;;;;;;8.65;4.63;;;;;;;-145.23;100.00;58621.06;5010948;28;20239;-52
2022/10/17 01:50:13;;;;;;;4.63;4.22;;;;;;;-145.23;100.00;58621.06;4995138;28;20238;-52
2022/10/17 01:52:45;;;;;;;5.32;4.18;;;;;;;-145.23;100.00;58621.06;4999775;28;20311;-53
2022/10/17 01:55:15;;;;;;;6.35;4.13;;;;;;;-145.23;100.00;58621.06;5003435;28;20764;-52
2022/10/17 01:57:45;;;;;;;5.68;4.43;;;;;;;-145.23;100.00;58621.06;5006115;28;20350;-52
2022/10/17 02:00:15;;;;;;;3.90;3.60;;;;;;;-145.23;100.00;58621.06;5007883;28;20749;-51
2022/10/17 02:02:45;;;;;;;8.90;4.53;;;;;;;-145.23;100.00;58621.06;4994394;28;20300;-51
2022/10/17 02:05:13;;;;;;;4.90;4.38;;;;;;;-145.23;100.00;58621.06;5004543;28;20257;-51
2022/10/17 02:07:41;;;;;;;5.05;4.22;;;;;;;-145.23;100.00;58621.06;5014315;28;20286;-52
2022/10/17 02:10:12;;;;;;;5.88;4.93;;;;;;;-145.23;100.00;58621.06;5005074;28;20237;-51
2022/10/17 02:12:47;;;;;;;4.28;3.90;;;;;;;-145.23;100.00;58621.06;5017731;28;20255;-50
2022/10/17 02:15:29;;;;;;;4.47;4.05;;;;;;;-145.23;100.00;58621.06;5004744;28;20703;-52
2022/10/17 02:18:07;;;;;;;5.22;4.22;;;;;;;-145.23;100.00;58621.06;5029447;28;20232;-51
2022/10/17 02:20:38;;;;;;;4.82;4.43;;;;;;;-145.23;100.00;58621.06;5024686;28;20237;-52
2022/10/17 02:23:11;;;;;;;4.05;3.75;;;;;;;-145.23;100.00;58621.06;5014975;28;20595;-53
2022/10/17 02:25:41;;;;;;;5.40;4.90;;;;;;;-145.23;100.00;58621.06;5024204;28;20237;-51
2022/10/17 02:28:19;;;;;;;4.70;4.30;;;;;;;-145.23;100.00;58621.06;5034874;28;20255;-53
2022/10/17 02:30:52;;;;;;;4.88;4.40;;;;;;;-145.23;100.00;58621.06;5037857;28;20771;-53
2022/10/17 02:33:25;;;;;;;4.45;4.15;;;;;;;-145.23;100.00;58621.06;5023182;28;20241;-53
2022/10/17 02:35:55;;;;;;;4.45;4.03;;;;;;;-145.23;100.00;58621.06;5017840;28;20234;-53
2022/10/17 02:38:28;;;;;;;4.50;4.10;;;;;;;-145.23;100.00;58621.06;5025625;28;20738;-52
2022/10/17 02:40:56;;;;;;;4.93;4.40;;;;;;;-145.23;100.00;58621.06;5020748;28;20226;-52
2022/10/17 02:43:23;;;;;;;4.60;4.28;;;;;;;-145.23;100.00;58621.06;5056280;28;20256;-52
2022/10/17 02:45:52;;;;;;;5.45;4.60;;;;;;;-145.23;100.00;58621.06;5022785;28;20229;-53
2022/10/17 02:48:24;;;;;;;4.82;4.43;;;;;;;-145.23;100.00;58621.06;5030696;28;20237;-53
2022/10/17 02:50:57;;;;;;;5.22;4.72;;;;;;;-145.23;100.00;58621.06;5016270;28;20240;-53
2022/10/17 02:53:30;;;;;;;4.88;4.40;;;;;;;-145.23;100.00;58621.06;5015379;28;20233;-52
2022/10/17 02:55:59;;;;;;;6.32;5.00;;;;;;;-145.23;100.00;58621.06;5026595;28;20241;-53
2022/10/17 02:58:29;;;;;;;4.82;4.43;;;;;;;-145.23;100.00;58621.06;5029516;28;20231;-52
2022/10/17 03:00:57;;;;;;;4.47;4.07;;;;;;;-145.23;100.00;58621.06;5022926;28;20682;-53
2022/10/17 03:03:26;;;;;;;3.97;3.55;;;;;;;-145.23;100.00;58621.06;5022283;28;20260;-52
2022/10/17 03:05:54;;;;;;;5.15;4.72;;;;;;;-145.23;100.00;58621.06;5023261;28;20235;-52
2022/10/17 03:08:21;;;;;;;4.25;3.95;;;;;;;-145.23;100.00;58621.06;5029964;28;20241;-51
2022/10/17 03:10:48;;;;;;;5.30;4.85;;;;;;;-145.23;100.00;58621.06;5022348;28;20271;-52
2022/10/17 03:13:16;;;;;;;5.15;4.07;;;;;;;-145.23;100.00;58621.06;5004334;28;20233;-53
2022/10/17 03:15:42;;;;;;;4.45;4.05;;;;;;;-145.23;100.00;58621.06;5009223;28;20232;-52
2022/10/17 03:18:10;;;;;;;9.82;4.68;;;;;;;-145.23;100.00;58621.06;5011632;28;20332;-51
2022/10/17 03:20:38;;;;;;;6.38;5.13;;;;;;;-145.23;100.00;58621.06;5009144;28;20260;-52
2022/10/17 03:23:05;;;;;;;5.05;4.55;;;;;;;-145.23;100.00;58621.06;5005695;28;20230;-51
2022/10/17 03:25:31;;;;;;;5.53;4.20;;;;;;;-145.23;100.00;58621.06;5013061;28;20232;-53
2022/10/17 03:27:59;;;;;;;6.07;4.07;;;;;;;-145.23;100.00;58621.06;5030393;28;20241;-52
2022/10/17 03:30:26;;;;;;;4.53;4.13;;;;;;;-145.23;100.00;58621.06;5007677;28;20233;-52
2022/10/17 03:32:53;;;;;;;5.50;5.00;;;;;;;-145.23;100.00;58621.06;5029611;28;20232;-52
2022/10/17 03:35:20;;;;;;;4.72;4.32;;;;;;;-145.23;100.00;58621.06;5026527;28;20236;-53
2022/10/17 03:37:49;;;;;;;4.30;3.90;;;;;;;-145.23;100.00;58621.06;5022847;28;20329;-52
2022/10/17 03:40:15;;;;;;;4.20;3.85;;;;;;;-145.23;100.00;58621.06;5026798;28;20831;-53
2022/10/17 03:42:43;;;;;;;4.18;3.88;;;;;;;-145.23;100.00;58621.06;5033308;28;20235;-52
2022/10/17 03:45:10;;;;;;;4.70;4.15;;;;;;;-145.23;100.00;58621.06;5030828;28;20239;-52
2022/10/17 03:47:37;;;;;;;4.85;4.50;;;;;;;-145.23;100.00;58621.06;5008819;28;20237;-52
2022/10/17 03:50:06;;;;;;;4.05;3.75;;;;;;;-145.23;100.00;58621.06;5017284;28;20262;-53
2022/10/17 03:52:33;;;;;;;3.92;3.63;;;;;;;-145.23;100.00;58621.06;5041380;28;20789;-54
2022/10/17 03:55:02;;;;;;;4.10;3.80;;;;;;;-145.23;100.00;58621.06;5026332;28;20231;-53
2022/10/17 03:57:29;;;;;;;4.90;4.50;;;;;;;-145.23;100.00;58621.06;5039346;28;20283;-53
2022/10/17 03:59:56;;;;;;;4.60;4.20;;;;;;;-145.23;100.00;58621.06;5004678;28;20234;-52
2022/10/17 04:02:23;;;;;;;4.95;4.50;;;;;;;-145.23;100.00;58621.06;5030087;28;20248;-52
2022/10/17 04:04:50;;;;;;;4.72;4.32;;;;;;;-145.23;100.00;58621.06;5014934;28;20237;-53
2022/10/17 04:07:17;;;;;;;4.60;4.20;;;;;;;-145.23;100.00;58621.06;5005197;28;20224;-53
2022/10/17 04:09:44;;;;;;;7.07;3.88;;;;;;;-145.23;100.00;58621.06;5002809;28;20243;-52
2022/10/17 04:12:12;;;;;;;4.43;4.13;;;;;;;-145.23;100.00;58621.06;5008955;28;20244;-52
2022/10/17 04:14:39;;;;;;;3.90;3.60;;;;;;;-145.23;100.00;58621.06;5009041;28;20233;-52
2022/10/17 04:17:06;;;;;;;3.78;3.38;;;;;;;-145.23;100.00;58621.06;5004457;28;20251;-53
2022/10/17 04:19:33;;;;;;;4.63;4.22;;;;;;;-145.23;100.00;58621.06;4993182;28;20237;-53
2022/10/17 04:22:01;;;;;;;5.03;4.53;;;;;;;-145.23;100.00;58621.06;5008154;28;20223;-52
2022/10/17 04:24:31;;;;;;;4.57;4.18;;;;;;;-145.23;100.00;58621.06;5018912;28;20239;-54
2022/10/17 04:26:58;;;;;;;4.78;4.38;;;;;;;-145.23;100.00;58621.06;5027027;28;20631;-53
2022/10/17 04:29:27;;;;;;;6.45;4.10;;;;;;;-145.23;100.00;58621.06;5029608;28;20710;-52
2022/10/17 04:31:54;;;;;;;5.05;4.65;;;;;;;-145.23;100.00;58621.06;5028367;28;20303;-52
2022/10/17 04:34:22;;;;;;;6.03;4.53;;;;;;;-145.23;100.00;58621.06;5021931;28;20247;-53
2022/10/17 04:36:50;;;;;;;5.53;4.63;;;;;;;-145.23;100.00;58621.06;5015596;28;20243;-53
2022/10/17 04:39:17;;;;;;;7.35;4.47;;;;;;;-145.23;100.00;58621.06;5014292;28;20779;-52
2022/10/17 04:41:44;;;;;;;4.63;4.22;;;;;;;-145.23;100.00;58621.06;5022831;28;20332;-53
2022/10/17 04:44:11;;;;;;;4.80;4.40;;;;;;;-145.23;100.00;58621.06;5034138;28;20321;-52
2022/10/17 04:46:39;;;;;;;5.57;4.35;;;;;;;-145.23;100.00;58621.06;5021141;28;20236;-52
2022/10/17 04:49:07;;;;;;;6.45;5.00;;;;;;;-145.23;100.00;58621.06;4996996;28;20242;-52
2022/10/17 04:51:34;;;;;;;5.03;4.57;;;;;;;-145.23;100.00;58621.06;5000783;28;20227;-52
2022/10/17 04:54:01;;;;;;;4.32;4.03;;;;;;;-145.23;100.00;58621.06;5008933;28;20240;-51
2022/10/17 04:56:28;;;;;;;5.82;4.65;;;;;;;-145.23;100.00;58621.06;5007215;28;20233;-54
2022/10/17 04:58:55;;;;;;;4.03;3.72;;;;;;;-145.23;100.00;58621.06;5022509;28;20338;-52
2022/10/17 05:01:23;;;;;;;4.90;4.40;;;;;;;-145.23;100.00;58621.06;5023564;28;20756;-52
2022/10/17 05:03:51;;;;;;;4.97;4.57;;;;;;;-145.23;100.00;58621.06;5013829;28;20240;-52
2022/10/17 05:06:24;;;;;;;4.25;3.95;;;;;;;-145.23;100.00;58621.06;5020973;28;20239;-52
2022/10/17 05:08:51;;;;;;;5.03;4.55;;;;;;;-145.23;100.00;58621.06;5016543;28;20236;-52
2022/10/17 05:11:19;;;;;;;4.90;4.50;;;;;;;-145.23;100.00;58621.06;5019811;28;20236;-52
2022/10/17 05:13:50;;;;;;;4.85;4.38;;;;;;;-145.23;100.00;58621.06;5017859;28;21013;-51
2022/10/17 05:16:17;;;;;;;6.00;5.55;;;;;;;-145.23;100.00;58621.06;5019887;28;20271;-52
2022/10/17 05:18:44;;;;;;;4.70;4.30;;;;;;;-145.23;100.00;58621.06;5019399;28;20241;-55
2022/10/17 05:21:12;;;;;;;4.53;4.15;;;;;;;-145.23;100.00;58621.06;5003269;28;20237;-52
2022/10/17 05:23:39;;;;;;;4.90;4.55;;;;;;;-145.23;100.00;58621.06;4997309;28;20243;-52
2022/10/17 05:26:06;;;;;;;4.50;4.03;;;;;;;-145.23;100.00;58621.06;4998299;28;20249;-53
2022/10/17 05:28:32;;;;;;;5.38;4.88;;;;;;;-145.23;100.00;58621.06;5006500;28;20280;-52
2022/10/17 05:31:03;;;;;;;5.65;5.00;;;;;;;-145.23;100.00;58621.06;4996794;28;20236;-52
2022/10/17 05:33:29;;;;;;;4.68;4.28;;;;;;;-145.23;100.00;58621.06;5004814;28;20225;-54
2022/10/17 05:35:57;;;;;;;5.78;5.28;;;;;;;-145.23;100.00;58621.06;5024698;28;20227;-51
2022/10/17 05:38:25;;;;;;;8.88;4.68;;;;;;;-145.23;100.00;58621.06;5022201;28;20324;-53
2022/10/17 05:40:52;;;;;;;5.00;4.47;;;;;;;-145.23;100.00;58621.06;5021347;28;20646;-53
2022/10/17 05:43:19;;;;;;;5.75;4.32;;;;;;;-145.23;100.00;58621.06;5024577;28;20240;-55
2022/10/17 05:45:46;;;;;;;5.68;5.28;;;;;;;-145.23;100.00;58621.06;5017681;28;20240;-53
2022/10/17 05:48:13;;;;;;;5.47;5.07;;;;;;;-145.23;100.00;58621.06;5011892;28;20229;-52
2022/10/17 05:50:42;;;;;;;5.07;4.15;;;;;;;-145.23;100.00;58621.06;5005402;28;20261;-53
2022/10/17 05:53:10;;;;;;;6.63;5.07;;;;;;;-145.23;100.00;58621.06;5004995;28;20244;-52
2022/10/17 05:55:38;;;;;;;4.90;4.50;;;;;;;-145.23;100.00;58621.06;5008181;28;20731;-52
2022/10/17 05:58:05;;;;;;;7.30;5.00;;;;;;;-145.23;100.00;58621.06;5012867;28;20244;-52
2022/10/17 06:00:32;;;;;;;5.97;4.85;;;;;;;-145.23;100.00;58621.06;5007519;28;20241;-52
2022/10/17 06:02:59;;;;;;;5.65;5.15;;;;;;;-145.23;100.00;58621.06;5011823;28;20233;-52
2022/10/17 06:05:26;;;;;;;4.75;4.35;;;;;;;-145.23;100.00;58621.06;5014602;28;22179;-52
2022/10/17 06:07:53;;;;;;;5.10;4.70;;;;;;;-145.23;100.00;58621.06;5012956;28;20238;-52
2022/10/17 06:10:20;;;;;;;5.97;5.22;;;;;;;-145.23;100.00;58621.06;5003102;28;20316;-52
2022/10/17 06:12:48;;;;;;;5.38;4.88;;;;;;;-145.23;100.00;58621.06;5015289;28;20234;-52
2022/10/17 06:15:15;;;;;;;5.13;4.72;;;;;;;-145.23;100.00;58621.06;5017315;28;20239;-52
2022/10/17 06:17:42;;;;;;;5.53;4.63;;;;;;;-145.23;100.00;58621.06;5013456;28;20236;-53
2022/10/17 06:20:10;;;;;;;5.35;4.85;;;;;;;-145.23;100.00;58621.06;5007949;28;20624;-53
2022/10/17 06:22:36;;;;;;;5.63;5.05;;;;;;;-145.23;100.00;58621.06;5007216;28;20237;-52
2022/10/17 06:25:04;;;;;;;5.50;5.05;;;;;;;-145.23;100.00;58621.06;5009258;28;20527;-52
2022/10/17 06:27:31;;;;;;;5.25;4.85;;;;;;;-145.23;100.00;58621.06;5007782;28;20237;-53
2022/10/17 06:29:59;;;;;;;6.43;5.00;;;;;;;-145.23;100.00;58621.06;5004332;28;20229;-53
2022/10/17 06:32:26;;;;;;;5.78;5.28;;;;;;;-145.23;100.00;58621.06;5021426;28;21342;-53
2022/10/17 06:34:53;;;;;;;5.35;4.95;;;;;;;-145.23;100.00;58621.06;5021997;28;20304;-53
2022/10/17 06:37:22;;;;;;;5.35;4.95;;;;;;;-145.23;100.00;58621.06;5024817;28;20381;-53
2022/10/17 06:39:49;;;;;;;5.13;4.70;;;;;;;-145.23;100.00;58621.06;5007042;28;20232;-53
2022/10/17 06:42:16;;;;;;;4.68;4.28;;;;;;;-145.23;100.00;58621.06;5007275;28;20324;-52
2022/10/17 06:44:43;;;;;;;6.13;5.40;;;;;;;-145.23;100.00;58621.06;4999490;28;20320;-51
2022/10/17 06:47:12;;;;;;;5.20;4.65;;;;;;;-145.23;100.00;58621.06;5006036;28;20795;-52
2022/10/17 06:49:39;;;;;;;5.45;4.95;;;;;;;-145.23;100.00;58621.06;5001528;28;20239;-53
2022/10/17 06:52:06;;;;;;;4.95;4.55;;;;;;;-145.23;100.00;58621.06;5008559;28;20266;-52
2022/10/17 06:54:33;;;;;;;8.05;5.55;;;;;;;-145.23;100.00;58621.06;5003866;28;20233;-51
2022/10/17 06:57:00;;;;;;;5.63;4.65;;;;;;;-145.23;100.00;58621.06;5005711;28;20230;-52
2022/10/17 06:59:27;;;;;;;7.70;4.82;;;;;;;-145.23;100.00;58621.06;5020141;28;20270;-53
2022/10/17 07:01:54;;;;;;;8.68;4.38;;;;;;;-145.23;100.00;58621.06;4999647;28;20252;-53
2022/10/17 07:04:22;;;;;;;5.25;4.70;;;;;;;-145.23;100.00;58621.06;5012182;28;20302;-52
2022/10/17 07:06:49;;;;;;;10.48;6.43;;;;;;;-145.23;100.00;58621.06;4995708;28;20236;-52
2022/10/17 07:09:16;;;;;;;7.90;5.15;;;;;;;-145.23;100.00;58621.06;5001317;28;20381;-51
2022/10/17 07:11:43;;;;;;;4.38;4.07;;;;;;;-145.23;100.00;58621.06;5007617;28;20284;-52
2022/10/17 07:14:10;;;;;;;5.43;4.85;;;;;;;-145.23;100.00;58621.06;5015851;28;20324;-51
2022/10/17 07:16:37;;;;;;;7.53;4.95;;;;;;;-145.23;100.00;58621.06;5001625;28;20232;-53
2022/10/17 07:19:07;;;;;;;6.50;4.80;;;;;;;-145.23;100.00;58621.06;5011937;28;20745;-52
2022/10/17 07:21:35;;;;;;;5.22;4.72;;;;;;;-145.23;100.00;58621.06;5025390;28;20216;-53
2022/10/17 07:24:06;;;;;;;5.00;4.47;;;;;;;-145.23;100.00;58621.06;5016446;28;20252;-52
2022/10/17 07:26:33;;;;;;;5.88;5.30;;;;;;;-145.23;100.00;58621.06;5016158;28;20275;-54
2022/10/17 07:29:01;;;;;;;6.43;5.38;;;;;;;-145.23;100.00;58621.06;5023787;28;20262;-54
2022/10/17 07:31:27;;;;;;;6.18;4.85;;;;;;;-145.23;100.00;58621.06;5022745;28;20229;-52
2022/10/17 07:33:54;;;;;;;5.28;4.68;;;;;;;-145.23;100.00;58621.06;5012895;28;20240;-52
2022/10/17 07:36:21;;;;;;;5.10;3.75;;;;;;;-145.23;100.00;58621.06;5018625;28;20382;-52
2022/10/17 07:38:49;;;;;;;4.65;3.63;;;;;;;-145.23;100.00;58621.06;5007866;28;20225;-52
2022/10/17 07:41:15;;;;;;;8.00;5.40;;;;;;;-145.23;100.00;58621.06;4999570;28;20241;-51
2022/10/17 07:43:42;;;;;;;6.68;4.10;;;;;;;-145.23;100.00;58621.06;5013614;28;20894;-52
2022/10/17 07:46:10;;;;;;;4.68;4.28;;;;;;;-145.23;100.00;58621.06;5017344;28;20236;-53
2022/10/17 07:48:37;;;;;;;5.07;4.00;;;;;;;-145.23;100.00;58621.06;5020411;28;20323;-52
2022/10/17 07:51:04;;;;;;;4.68;4.25;;;;;;;-145.23;100.00;58621.06;5022295;28;20228;-51
2022/10/17 07:53:31;;;;;;;5.10;4.20;;;;;;;-145.23;100.00;58621.06;5025362;28;20236;-54
2022/10/17 07:55:59;;;;;;;5.65;4.60;;;;;;;-145.23;100.00;58621.06;5016321;28;21513;-52
2022/10/17 07:58:27;;;;;;;4.43;4.03;;;;;;;-145.23;100.00;58621.06;5008752;28;20272;-52
2022/10/17 08:00:54;;;;;;;4.88;4.57;;;;;;;-145.23;100.00;58621.06;5001210;28;20263;-54
2022/10/17 08:03:20;;;;;;;4.47;4.13;;;;;;;-145.23;100.00;58621.06;4992006;28;20265;-53
2022/10/17 08:05:46;;;;;;;4.72;3.80;;;;;;;-145.23;100.00;58621.06;5010462;28;20233;-52
2022/10/17 08:08:13;;;;;;;4.70;4.22;;;;;;;-145.23;100.00;58621.06;5015772;28;20236;-53
2022/10/17 08:10:39;;;;;;;4.88;4.45;;;;;;;-145.23;100.00;58621.06;5022838;28;20236;-52
2022/10/17 08:13:08;;;;;;;6.75;3.92;;;;;;;-145.23;100.00;58621.06;5032616;28;20247;-52
2022/10/17 08:15:38;;;;;;;6.97;3.90;;;;;;;-145.23;100.00;58621.06;5041136;28;20235;-52
2022/10/17 08:18:05;;;;;;;5.45;4.95;;;;;;;-145.23;100.00;58621.06;5043776;28;20238;-53
2022/10/17 08:20:32;;;;;;;4.68;4.13;;;;;;;-145.23;100.00;58621.06;5041302;28;20301;-53
2022/10/17 08:22:58;;;;;;;3.72;3.42;;;;;;;-145.23;100.00;58621.06;5043739;28;20250;-52
2022/10/17 08:25:25;;;;;;;4.75;3.78;;;;;;;-145.23;100.00;58621.06;5044168;28;20228;-52
2022/10/17 08:27:52;;;;;;;3.88;3.58;;;;;;;-145.23;100.00;58621.06;5046092;28;20235;-51
2022/10/17 08:30:20;;;;;;;4.55;4.13;;;;;;;-145.23;100.00;58621.06;5036970;28;20251;-52
2022/10/17 08:32:47;;;;;;;4.97;3.95;;;;;;;-145.23;100.00;58621.06;5024041;28;20228;-52
2022/10/17 08:35:14;;;;;;;4.78;4.28;;;;;;;-145.23;100.00;58621.06;5028177;28;20239;-51
2022/10/17 08:37:44;;;;;;;3.53;3.22;;;;;;;-145.23;100.00;58621.06;5029097;28;20256;-53
2022/10/17 08:40:15;;;;;;;4.10;3.70;;;;;;;-145.23;100.00;58621.06;5006794;28;20232;-53
2022/10/17 08:42:54;;;;;;;10.82;4.30;;;;;;;-145.23;100.00;58621.06;4996990;28;20234;-51
2022/10/17 08:45:27;;;;;;;4.78;3.70;;;;;;;-145.23;100.00;58621.06;4996063;28;20817;-52
2022/10/17 08:47:58;;;;;;;3.42;3.22;;;;;;;-145.23;100.00;58621.06;4996568;28;20265;-51
2022/10/17 08:50:31;;;;;;;3.78;2.70;;;;;;;-145.23;100.00;58621.06;5011288;28;20745;-52
2022/10/17 08:53:01;;;;;;;3.45;3.15;;;;;;;-145.23;100.00;58621.06;5021124;28;20726;-51
2022/10/17 08:55:30;;;;;;;6.18;3.20;;;;;;;-145.23;100.00;58621.06;5010816;28;20265;-53
2022/10/17 08:57:57;;;;;;;3.40;3.10;;;;;;;-145.23;100.00;58621.06;5007792;28;20755;-52
2022/10/17 09:00:26;;;;;;;4.78;2.97;;;;;;;-145.23;100.00;58621.06;5015293;28;20753;-54
2022/10/17 09:03:04;;;;;;;4.10;3.17;;;;;;;-145.23;100.00;58621.06;5013033;28;20237;-51
2022/10/17 09:05:37;;;;;;;5.93;3.60;;;;;;;-145.23;100.00;58621.06;5018651;28;20259;-52
2022/10/17 09:08:12;;;;;;;4.43;3.00;;;;;;;-145.23;100.00;58621.06;5020212;28;20228;-52
2022/10/17 09:10:50;;;;;;;5.50;2.85;;;;;;;-145.23;100.00;58621.06;5016445;28;20232;-52
2022/10/17 09:13:25;;;;;;;6.25;3.22;;;;;;;-145.23;100.00;58621.06;5016162;28;20259;-52
2022/10/17 09:16:09;;;;;;;3.58;2.63;;;;;;;-145.23;100.00;58621.06;5014918;28;20246;-52
2022/10/17 09:18:38;;;;;;;2.78;2.55;;;;;;;-145.23;100.00;58621.06;5020017;28;20247;-52
2022/10/17 09:21:14;;;;;;;4.85;3.35;;;;;;;-145.23;100.00;58621.06;5023952;28;20236;-53
2022/10/17 09:23:44;;;;;;;3.53;3.22;;;;;;;-145.23;100.00;58621.06;5018641;28;20259;-52
2022/10/17 09:26:11;;;;;;;4.10;2.70;;;;;;;-145.23;100.00;58621.06;5015371;28;20237;-51
2022/10/17 09:28:39;;;;;;;3.75;3.33;;;;;;;-145.23;100.00;58621.06;5013781;28;20251;-52
2022/10/17 09:31:12;;;;;;;4.25;3.85;;;;;;;-145.23;100.00;58621.06;5019812;28;20235;-51
2022/10/17 09:33:40;;;;;;;5.75;3.03;;;;;;;-145.23;100.00;58621.06;5011818;28;20240;-53
2022/10/17 09:36:11;;;;;;;3.10;2.80;;;;;;;-145.23;100.00;58621.06;5009417;28;20244;-52
2022/10/17 09:38:40;;;;;;;4.18;3.05;;;;;;;-145.23;100.00;58621.06;5015646;28;20229;-52
2022/10/17 09:41:14;;;;;;;2.85;2.25;;;;;;;-145.23;100.00;58621.06;5016588;28;20260;-52
2022/10/17 09:43:40;;;;;;;3.40;2.60;;;;;;;-145.23;100.00;58621.06;5016575;28;20236;-53
2022/10/17 09:46:13;;;;;;;4.63;2.83;;;;;;;-145.23;100.00;58621.06;5005449;28;20727;-54
2022/10/17 09:48:42;;;;;;;13.30;4.30;;;;;;;-145.23;100.00;58621.06;5014294;28;20663;-52
2022/10/17 09:51:09;;;;;;;5.47;3.10;;;;;;;-145.23;100.00;58621.06;5013702;28;20742;-52
2022/10/17 09:53:38;;;;;;;3.92;2.80;;;;;;;-145.23;100.00;58621.06;5012017;28;20237;-52
2022/10/17 09:56:08;;;;;;;3.05;2.70;;;;;;;-145.23;100.00;58621.06;5016575;28;20236;-51
2022/10/17 09:58:42;;;;;;;3.35;2.83;;;;;;;-145.23;100.00;58621.06;5014106;28;20593;-50
2022/10/17 10:01:19;;;;;;;3.72;3.03;;;;;;;-145.23;100.00;58621.06;5015704;28;20229;-52
2022/10/17 10:03:45;;;;;;;5.55;3.22;;;;;;;-145.23;100.00;58621.06;5020386;28;20323;-51
2022/10/17 10:06:15;;;;;;;3.25;2.78;;;;;;;-145.23;100.00;58621.06;5018199;28;20240;-52
2022/10/17 10:08:49;;;;;;;5.10;3.35;;;;;;;-145.23;100.00;58621.06;5007090;28;20727;-52
2022/10/17 10:11:16;;;;;;;2.55;2.35;;;;;;;-145.23;100.00;58621.06;5018773;28;20240;-51
2022/10/17 10:13:43;;;;;;;4.93;3.53;;;;;;;-145.23;100.00;58621.06;5019614;28;20762;-53
2022/10/17 10:16:18;;;;;;;3.10;2.80;;;;;;;-145.23;100.00;58621.06;5018203;28;21919;-52
2022/10/17 10:18:45;;;;;;;3.45;2.65;;;;;;;-145.23;100.00;58621.06;5010818;28;20576;-51
2022/10/17 10:21:13;;;;;;;5.65;3.13;;;;;;;-145.23;100.00;58621.06;5009855;28;20727;-52
2022/10/17 10:23:40;;;;;;;4.30;3.00;;;;;;;-145.23;100.00;58621.06;5016619;28;20241;-52
2022/10/17 10:26:23;;;;;;;2.40;2.20;;;;;;;-145.23;100.00;58621.06;5016507;28;20229;-52
2022/10/17 10:28:55;;;;;;;5.10;2.50;;;;;;;-145.23;100.00;58621.06;5010338;28;21930;-52
2022/10/17 10:31:32;;;;;;;2.58;2.38;;;;;;;-145.23;100.00;58621.06;5012443;28;20245;-53
2022/10/17 10:34:01;;;;;;;3.92;2.78;;;;;;;-145.23;100.00;58621.06;5024900;28;20279;-52
2022/10/17 10:36:43;;;;;;;3.13;2.83;;;;;;;-145.23;100.00;58621.06;5016148;28;21455;-53
2022/10/17 10:39:24;;;;;;;4.82;2.95;;;;;;;-145.23;100.00;58621.06;5021844;28;20228;-51
2022/10/17 10:41:50;;;;;;;3.53;2.42;;;;;;;-145.23;100.00;58621.06;5016734;28;20790;-53
2022/10/17 10:44:19;;;;;;;2.83;2.55;;;;;;;-145.23;100.00;58621.06;5025602;28;20245;-52
2022/10/17 10:46:46;;;;;;;3.80;2.78;;;;;;;-145.23;100.00;58621.06;5017796;28;20244;-51
2022/10/17 10:49:29;;;;;;;2.60;2.40;;;;;;;-145.23;100.00;58621.06;5024373;28;20232;-52
2022/10/17 10:51:58;;;;;;;2.65;2.45;;;;;;;-145.23;100.00;58621.06;5015552;28;20340;-51
2022/10/17 10:54:28;;;;;;;5.68;3.25;;;;;;;-145.23;100.00;58621.06;5017615;28;20750;-52
2022/10/17 10:56:57;;;;;;;4.38;2.33;;;;;;;-145.23;100.00;58621.06;5019946;28;20661;-51
2022/10/17 10:59:29;;;;;;;5.35;2.20;;;;;;;-145.23;100.00;58621.06;5025558;28;20221;-51
2022/10/17 11:02:01;;;;;;;4.55;2.53;;;;;;;-145.23;100.00;58621.06;5031324;28;20237;-52
2022/10/17 11:04:31;;;;;;;3.80;2.80;;;;;;;-145.23;100.00;58621.06;5029374;28;20702;-52
2022/10/17 11:07:02;;;;;;;3.25;2.95;;;;;;;-145.23;100.00;58621.06;5029469;28;20232;-52
2022/10/17 11:09:36;;;;;;;4.45;2.28;;;;;;;-145.23;100.00;58621.06;5021228;28;20225;-53
2022/10/17 11:12:06;;;;;;;4.63;3.03;;;;;;;-145.23;100.00;58621.06;5021971;28;20412;-52
2022/10/17 11:14:38;;;;;;;2.70;2.50;;;;;;;-145.23;100.00;58621.06;5024067;28;20808;-54
2022/10/17 11:17:12;;;;;;;3.35;3.05;;;;;;;-145.23;100.00;58621.06;5015244;28;20238;-52